Elizabeth, Minnesota
Current Conditions -  °F | °C
As of 10:54 AM on Monday 22 Dec 2014 (Local Time) from KFFM Reporting Station
Overcast Overcast  
Wind Chill: 30°   Ceiling: 600
Heat Index: 37°   Visibility: 10mi
Dew Point: 37°   Wind: 12mph
Humidity: 100%   Direction: 130°SE
Pressure: 29.54"   Gusts: NA
Location:  46.38°N, 96.13°W
Report Text: KFFM 221654Z AUTO 13010KT 10SM OVC006 03/03 A2954 RMK AO2
Loading
Personal Weather Stations






























Interactive Weather Map New forecast layout! Learn more

10-Day Weather Forecast

Advertisements
Track Severe Weather on mobile